Pekin, Vermont
Current Conditions -  °F | °C
As of 3:38 AM on Friday 28 Nov 2014 (Local Time) from KMPV Reporting Station
Light Snow Light Snow  
Wind Chill: 21°   Ceiling: 3600
Heat Index: 21°   Visibility: 2mi
Dew Point: 19°   Wind: 0mph
Humidity: 92%   Direction: NA
Pressure: 30.02"   Gusts: NA
Location:  44.2439°N, 72.4074°W
Report Text: KMPV 280838Z AUTO 00000KT 2SM -SN BR OVC036 M06/M07 A3002 RMK AO2 SNB06 P0000 T10611072
Loading
Personal Weather Stations






























Interactive Weather Map New forecast layout! Learn more

10-Day Weather Forecast

Advertisements
Track Severe Weather on mobile